CheckWX is a tool to help pilots better visualize weather data.  It is not intended as a substitute for an official pre-flight weather briefing.

05:15:52 UTC

KASN METAR
Talladega Municipal Airport
Talladega, Alabama, USA
Current

21 mins ago

KASN 240455Z AUTO 16005KT 10SM RA SCT024 BKN034 OVC050 19/19 A2987 RMK AO2 LTG DSNT N P0013 T01940194
Observed
Feb-24 @ 04:55 UTC
Wind
  • 160° at 5 KTS
Visibility
10 SM
Flight Rules
VFR
Conditions
Rain
Cloud Levels
  • Scattered at 2,400' AGL
  • Broken at 3,400' AGL
  • Overcast at 5,000' AGL
Temperature
19°C / 66°F
Dewpoint
19°C / 66°F
Humidity
100%
Altimeter
29.87" Hg
Pressure
1011.52 hPa
Current Rain
0.13"
Previous

41 mins ago

KASN 240435Z AUTO 16006KT 7SM RA BKN028 BKN034 OVC043 19/19 A2989 RMK AO2 LTG DSNT N P0009 T01930193
Observed
Feb-24 @ 04:35 UTC
Wind
  • 160° at 6 KTS
Visibility
7 SM
Flight Rules
MVFR
Conditions
Rain
Cloud Levels
  • Broken at 2,800' AGL
  • Broken at 3,400' AGL
  • Overcast at 4,300' AGL
Temperature
19°C / 66°F
Dewpoint
19°C / 66°F
Humidity
100%
Altimeter
29.89" Hg
Pressure
1012.22 hPa
Current Rain
0.09"
Previous

1 hour ago

KASN 240415Z AUTO 16008KT 7SM RA SCT024 BKN036 OVC047 19/19 A2991 RMK AO2 LTG DSNT N P0006 T01920192
Observed
Feb-24 @ 04:15 UTC
Wind
  • 160° at 8 KTS
Visibility
7 SM
Flight Rules
VFR
Conditions
Rain
Cloud Levels
  • Scattered at 2,400' AGL
  • Broken at 3,600' AGL
  • Overcast at 4,700' AGL
Temperature
19°C / 66°F
Dewpoint
19°C / 66°F
Humidity
100%
Altimeter
29.91" Hg
Pressure
1012.92 hPa
Current Rain
0.06"